sensor_id;sensor_type;location;lat;lon;timestamp;P1;durP1;ratioP1;P2;durP2;ratioP2
59145;SDS011;44928;53.074;6.646;2023-04-22T00:01:41;12.40;;;7.15;;
59145;SDS011;44928;53.074;6.646;2023-04-22T00:04:06;10.57;;;6.93;;
59145;SDS011;44928;53.074;6.646;2023-04-22T00:06:33;10.98;;;6.45;;
59145;SDS011;44928;53.074;6.646;2023-04-22T00:08:59;11.48;;;6.72;;
59145;SDS011;44928;53.074;6.646;2023-04-22T00:11:25;12.40;;;6.78;;
59145;SDS011;44928;53.074;6.646;2023-04-22T00:13:51;15.25;;;7.63;;
59145;SDS011;44928;53.074;6.646;2023-04-22T00:16:17;10.68;;;6.53;;
59145;SDS011;44928;53.074;6.646;2023-04-22T00:18:42;10.05;;;7.07;;
59145;SDS011;44928;53.074;6.646;2023-04-22T00:21:08;10.35;;;6.57;;
59145;SDS011;44928;53.074;6.646;2023-04-22T00:23:34;12.88;;;6.97;;
59145;SDS011;44928;53.074;6.646;2023-04-22T00:26:00;10.10;;;6.45;;
59145;SDS011;44928;53.074;6.646;2023-04-22T00:28:26;10.23;;;6.53;;
59145;SDS011;44928;53.074;6.646;2023-04-22T00:30:52;11.55;;;6.80;;
59145;SDS011;44928;53.074;6.646;2023-04-22T00:33:18;9.98;;;6.35;;
59145;SDS011;44928;53.074;6.646;2023-04-22T00:35:44;11.48;;;6.47;;
59145;SDS011;44928;53.074;6.646;2023-04-22T00:38:10;10.85;;;7.10;;
59145;SDS011;44928;53.074;6.646;2023-04-22T00:40:37;10.93;;;6.70;;
59145;SDS011;44928;53.074;6.646;2023-04-22T00:43:03;10.00;;;6.55;;
59145;SDS011;44928;53.074;6.646;2023-04-22T00:45:29;10.23;;;6.55;;
59145;SDS011;44928;53.074;6.646;2023-04-22T00:47:55;9.50;;;6.75;;
59145;SDS011;44928;53.074;6.646;2023-04-22T00:50:22;12.55;;;7.07;;
59145;SDS011;44928;53.074;6.646;2023-04-22T00:52:47;11.63;;;7.30;;
59145;SDS011;44928;53.074;6.646;2023-04-22T00:55:13;10.77;;;7.13;;
59145;SDS011;44928;53.074;6.646;2023-04-22T00:57:39;11.90;;;7.95;;
59145;SDS011;44928;53.074;6.646;2023-04-22T01:00:06;9.82;;;6.80;;
59145;SDS011;44928;53.074;6.646;2023-04-22T01:02:34;10.02;;;7.13;;
59145;SDS011;44928;53.074;6.646;2023-04-22T01:05:04;10.82;;;7.70;;
59145;SDS011;44928;53.074;6.646;2023-04-22T01:07:33;13.73;;;7.50;;
59145;SDS011;44928;53.074;6.646;2023-04-22T01:10:00;9.93;;;7.10;;
59145;SDS011;44928;53.074;6.646;2023-04-22T01:12:27;10.95;;;6.88;;
59145;SDS011;44928;53.074;6.646;2023-04-22T01:14:52;11.38;;;6.90;;
59145;SDS011;44928;53.074;6.646;2023-04-22T01:17:18;10.07;;;7.53;;
59145;SDS011;44928;53.074;6.646;2023-04-22T01:19:46;11.52;;;7.97;;
59145;SDS011;44928;53.074;6.646;2023-04-22T01:22:13;10.88;;;7.28;;
59145;SDS011;44928;53.074;6.646;2023-04-22T01:24:39;13.35;;;8.13;;
59145;SDS011;44928;53.074;6.646;2023-04-22T01:27:05;11.98;;;7.35;;
59145;SDS011;44928;53.074;6.646;2023-04-22T01:29:32;10.48;;;7.00;;
59145;SDS011;44928;53.074;6.646;2023-04-22T01:31:58;11.57;;;7.32;;
59145;SDS011;44928;53.074;6.646;2023-04-22T01:34:24;11.25;;;7.25;;
59145;SDS011;44928;53.074;6.646;2023-04-22T01:36:50;11.55;;;7.10;;
59145;SDS011;44928;53.074;6.646;2023-04-22T01:39:16;11.80;;;8.02;;
59145;SDS011;44928;53.074;6.646;2023-04-22T01:41:42;11.50;;;7.80;;
59145;SDS011;44928;53.074;6.646;2023-04-22T01:44:08;11.82;;;7.90;;
59145;SDS011;44928;53.074;6.646;2023-04-22T01:46:34;10.57;;;7.03;;
59145;SDS011;44928;53.074;6.646;2023-04-22T01:49:00;11.55;;;7.78;;
59145;SDS011;44928;53.074;6.646;2023-04-22T01:51:26;11.02;;;6.90;;
59145;SDS011;44928;53.074;6.646;2023-04-22T01:53:52;10.50;;;7.05;;
59145;SDS011;44928;53.074;6.646;2023-04-22T01:56:18;11.02;;;7.25;;
59145;SDS011;44928;53.074;6.646;2023-04-22T01:58:43;10.70;;;7.72;;
59145;SDS011;44928;53.074;6.646;2023-04-22T02:01:09;10.73;;;7.35;;
59145;SDS011;44928;53.074;6.646;2023-04-22T02:03:36;10.38;;;6.95;;
59145;SDS011;44928;53.074;6.646;2023-04-22T02:06:03;11.50;;;7.45;;
59145;SDS011;44928;53.074;6.646;2023-04-22T02:08:29;11.02;;;8.02;;
59145;SDS011;44928;53.074;6.646;2023-04-22T02:10:55;11.40;;;7.72;;
59145;SDS011;44928;53.074;6.646;2023-04-22T02:13:21;13.15;;;9.73;;
59145;SDS011;44928;53.074;6.646;2023-04-22T02:15:46;13.77;;;10.60;;
59145;SDS011;44928;53.074;6.646;2023-04-22T02:18:12;13.48;;;10.95;;
59145;SDS011;44928;53.074;6.646;2023-04-22T02:20:38;13.93;;;10.82;;
59145;SDS011;44928;53.074;6.646;2023-04-22T02:23:04;13.77;;;10.93;;
59145;SDS011;44928;53.074;6.646;2023-04-22T02:25:30;15.07;;;10.43;;
59145;SDS011;44928;53.074;6.646;2023-04-22T02:27:56;14.15;;;10.57;;
59145;SDS011;44928;53.074;6.646;2023-04-22T02:30:21;12.77;;;8.90;;
59145;SDS011;44928;53.074;6.646;2023-04-22T02:32:48;13.15;;;8.93;;
59145;SDS011;44928;53.074;6.646;2023-04-22T02:35:14;12.15;;;9.27;;
59145;SDS011;44928;53.074;6.646;2023-04-22T02:37:39;12.63;;;8.68;;
59145;SDS011;44928;53.074;6.646;2023-04-22T02:40:05;11.90;;;8.75;;
59145;SDS011;44928;53.074;6.646;2023-04-22T02:42:32;11.77;;;8.80;;
59145;SDS011;44928;53.074;6.646;2023-04-22T02:44:57;11.52;;;7.72;;
59145;SDS011;44928;53.074;6.646;2023-04-22T02:47:23;10.93;;;7.00;;
59145;SDS011;44928;53.074;6.646;2023-04-22T02:49:49;11.32;;;8.40;;
59145;SDS011;44928;53.074;6.646;2023-04-22T02:52:15;11.70;;;8.10;;
59145;SDS011;44928;53.074;6.646;2023-04-22T02:54:41;11.18;;;7.47;;
59145;SDS011;44928;53.074;6.646;2023-04-22T02:57:06;11.60;;;7.43;;
59145;SDS011;44928;53.074;6.646;2023-04-22T02:59:33;12.40;;;8.02;;
59145;SDS011;44928;53.074;6.646;2023-04-22T03:01:59;11.35;;;7.82;;
59145;SDS011;44928;53.074;6.646;2023-04-22T03:04:25;11.77;;;7.90;;
59145;SDS011;44928;53.074;6.646;2023-04-22T03:06:51;9.98;;;7.32;;
59145;SDS011;44928;53.074;6.646;2023-04-22T03:09:17;13.27;;;7.53;;
59145;SDS011;44928;53.074;6.646;2023-04-22T03:11:42;11.07;;;7.95;;
59145;SDS011;44928;53.074;6.646;2023-04-22T03:14:08;11.45;;;7.65;;
59145;SDS011;44928;53.074;6.646;2023-04-22T03:16:35;12.77;;;8.52;;
59145;SDS011;44928;53.074;6.646;2023-04-22T03:19:01;9.93;;;7.07;;
59145;SDS011;44928;53.074;6.646;2023-04-22T03:21:27;11.32;;;7.45;;
59145;SDS011;44928;53.074;6.646;2023-04-22T03:23:53;12.23;;;7.78;;
59145;SDS011;44928;53.074;6.646;2023-04-22T03:26:19;11.60;;;8.60;;
59145;SDS011;44928;53.074;6.646;2023-04-22T03:28:46;11.00;;;7.05;;
59145;SDS011;44928;53.074;6.646;2023-04-22T03:31:11;12.35;;;8.60;;
59145;SDS011;44928;53.074;6.646;2023-04-22T03:33:37;13.10;;;8.73;;
59145;SDS011;44928;53.074;6.646;2023-04-22T03:36:03;11.40;;;8.18;;
59145;SDS011;44928;53.074;6.646;2023-04-22T03:38:29;11.40;;;9.00;;
59145;SDS011;44928;53.074;6.646;2023-04-22T03:40:55;11.95;;;9.70;;
59145;SDS011;44928;53.074;6.646;2023-04-22T03:43:20;12.65;;;9.13;;
59145;SDS011;44928;53.074;6.646;2023-04-22T03:45:46;11.20;;;8.20;;
59145;SDS011;44928;53.074;6.646;2023-04-22T03:48:12;13.15;;;8.90;;
59145;SDS011;44928;53.074;6.646;2023-04-22T03:50:38;11.32;;;8.95;;
59145;SDS011;44928;53.074;6.646;2023-04-22T03:53:03;12.20;;;9.15;;
59145;SDS011;44928;53.074;6.646;2023-04-22T03:55:29;11.98;;;9.18;;
59145;SDS011;44928;53.074;6.646;2023-04-22T03:57:55;11.80;;;8.35;;
59145;SDS011;44928;53.074;6.646;2023-04-22T04:00:21;10.68;;;8.07;;
59145;SDS011;44928;53.074;6.646;2023-04-22T04:02:47;10.80;;;8.23;;
59145;SDS011;44928;53.074;6.646;2023-04-22T04:05:12;11.60;;;8.23;;
59145;SDS011;44928;53.074;6.646;2023-04-22T04:07:39;12.23;;;8.13;;
59145;SDS011;44928;53.074;6.646;2023-04-22T04:10:05;11.65;;;8.20;;
59145;SDS011;44928;53.074;6.646;2023-04-22T04:12:31;11.82;;;7.97;;
59145;SDS011;44928;53.074;6.646;2023-04-22T04:14:57;11.27;;;8.70;;
59145;SDS011;44928;53.074;6.646;2023-04-22T04:17:23;12.35;;;8.45;;
59145;SDS011;44928;53.074;6.646;2023-04-22T04:19:50;11.45;;;8.98;;
59145;SDS011;44928;53.074;6.646;2023-04-22T04:22:16;10.48;;;7.47;;
59145;SDS011;44928;53.074;6.646;2023-04-22T04:24:42;12.15;;;9.05;;
59145;SDS011;44928;53.074;6.646;2023-04-22T04:27:08;12.38;;;9.05;;
59145;SDS011;44928;53.074;6.646;2023-04-22T04:29:36;11.50;;;8.25;;
59145;SDS011;44928;53.074;6.646;2023-04-22T04:32:02;11.18;;;8.85;;
59145;SDS011;44928;53.074;6.646;2023-04-22T04:34:28;11.52;;;9.07;;
59145;SDS011;44928;53.074;6.646;2023-04-22T04:36:56;11.95;;;8.45;;
59145;SDS011;44928;53.074;6.646;2023-04-22T04:39:22;11.63;;;8.70;;
59145;SDS011;44928;53.074;6.646;2023-04-22T04:41:50;12.65;;;9.02;;
59145;SDS011;44928;53.074;6.646;2023-04-22T04:44:19;12.38;;;9.10;;
59145;SDS011;44928;53.074;6.646;2023-04-22T04:46:46;12.63;;;9.10;;
59145;SDS011;44928;53.074;6.646;2023-04-22T04:49:12;11.90;;;9.05;;
59145;SDS011;44928;53.074;6.646;2023-04-22T04:51:38;10.88;;;7.75;;
59145;SDS011;44928;53.074;6.646;2023-04-22T04:54:04;10.77;;;7.93;;
59145;SDS011;44928;53.074;6.646;2023-04-22T04:56:30;12.23;;;6.93;;
59145;SDS011;44928;53.074;6.646;2023-04-22T04:58:55;10.65;;;7.55;;
59145;SDS011;44928;53.074;6.646;2023-04-22T05:01:22;12.45;;;8.43;;
59145;SDS011;44928;53.074;6.646;2023-04-22T05:03:48;10.35;;;6.85;;
59145;SDS011;44928;53.074;6.646;2023-04-22T05:06:14;13.15;;;9.18;;
59145;SDS011;44928;53.074;6.646;2023-04-22T05:08:40;14.73;;;10.95;;
59145;SDS011;44928;53.074;6.646;2023-04-22T05:11:05;15.27;;;10.82;;
59145;SDS011;44928;53.074;6.646;2023-04-22T05:13:31;13.35;;;10.13;;
59145;SDS011;44928;53.074;6.646;2023-04-22T05:15:57;14.52;;;10.65;;
59145;SDS011;44928;53.074;6.646;2023-04-22T05:18:24;14.90;;;9.68;;
59145;SDS011;44928;53.074;6.646;2023-04-22T05:20:49;12.35;;;9.23;;
59145;SDS011;44928;53.074;6.646;2023-04-22T05:23:15;12.02;;;8.88;;
59145;SDS011;44928;53.074;6.646;2023-04-22T05:25:41;11.88;;;8.85;;
59145;SDS011;44928;53.074;6.646;2023-04-22T05:28:07;12.77;;;9.60;;
59145;SDS011;44928;53.074;6.646;2023-04-22T05:30:33;11.93;;;9.05;;
59145;SDS011;44928;53.074;6.646;2023-04-22T05:32:59;12.52;;;8.70;;
59145;SDS011;44928;53.074;6.646;2023-04-22T05:35:25;13.15;;;10.20;;
59145;SDS011;44928;53.074;6.646;2023-04-22T05:37:51;14.45;;;10.02;;
59145;SDS011;44928;53.074;6.646;2023-04-22T05:40:17;12.88;;;10.35;;
59145;SDS011;44928;53.074;6.646;2023-04-22T05:42:43;13.80;;;9.73;;
59145;SDS011;44928;53.074;6.646;2023-04-22T05:45:09;14.73;;;10.60;;
59145;SDS011;44928;53.074;6.646;2023-04-22T05:47:35;16.13;;;10.65;;
59145;SDS011;44928;53.074;6.646;2023-04-22T05:50:01;13.75;;;11.20;;
59145;SDS011;44928;53.074;6.646;2023-04-22T05:52:27;15.25;;;10.13;;
59145;SDS011;44928;53.074;6.646;2023-04-22T05:54:53;14.50;;;10.68;;
59145;SDS011;44928;53.074;6.646;2023-04-22T05:57:19;13.80;;;10.70;;
59145;SDS011;44928;53.074;6.646;2023-04-22T05:59:44;14.07;;;11.38;;
59145;SDS011;44928;53.074;6.646;2023-04-22T06:02:10;14.18;;;11.15;;
59145;SDS011;44928;53.074;6.646;2023-04-22T06:04:36;15.70;;;11.88;;
59145;SDS011;44928;53.074;6.646;2023-04-22T06:07:02;16.15;;;12.13;;
59145;SDS011;44928;53.074;6.646;2023-04-22T06:09:28;15.85;;;11.68;;
59145;SDS011;44928;53.074;6.646;2023-04-22T06:11:54;15.43;;;11.05;;
59145;SDS011;44928;53.074;6.646;2023-04-22T06:14:20;15.73;;;11.80;;
59145;SDS011;44928;53.074;6.646;2023-04-22T06:16:46;17.13;;;12.13;;
59145;SDS011;44928;53.074;6.646;2023-04-22T06:19:12;15.80;;;12.20;;
59145;SDS011;44928;53.074;6.646;2023-04-22T06:21:37;17.23;;;12.75;;
59145;SDS011;44928;53.074;6.646;2023-04-22T06:24:04;17.77;;;13.23;;
59145;SDS011;44928;53.074;6.646;2023-04-22T06:26:30;15.80;;;12.55;;
59145;SDS011;44928;53.074;6.646;2023-04-22T06:28:56;15.13;;;12.27;;
59145;SDS011;44928;53.074;6.646;2023-04-22T06:31:22;15.95;;;12.05;;
59145;SDS011;44928;53.074;6.646;2023-04-22T06:33:48;15.32;;;11.50;;
59145;SDS011;44928;53.074;6.646;2023-04-22T06:36:13;16.13;;;12.95;;
59145;SDS011;44928;53.074;6.646;2023-04-22T06:38:39;16.50;;;11.93;;
59145;SDS011;44928;53.074;6.646;2023-04-22T06:41:05;15.88;;;12.32;;
59145;SDS011;44928;53.074;6.646;2023-04-22T06:43:31;15.48;;;11.40;;
59145;SDS011;44928;53.074;6.646;2023-04-22T06:45:56;15.55;;;11.48;;
59145;SDS011;44928;53.074;6.646;2023-04-22T06:48:22;14.00;;;10.77;;
59145;SDS011;44928;53.074;6.646;2023-04-22T06:50:48;14.55;;;11.30;;
59145;SDS011;44928;53.074;6.646;2023-04-22T06:53:14;13.20;;;10.57;;
59145;SDS011;44928;53.074;6.646;2023-04-22T06:55:40;14.68;;;11.30;;
59145;SDS011;44928;53.074;6.646;2023-04-22T06:58:06;14.80;;;10.93;;
59145;SDS011;44928;53.074;6.646;2023-04-22T07:00:32;14.18;;;11.23;;
59145;SDS011;44928;53.074;6.646;2023-04-22T07:02:57;15.10;;;11.10;;
59145;SDS011;44928;53.074;6.646;2023-04-22T07:05:23;15.40;;;10.95;;
59145;SDS011;44928;53.074;6.646;2023-04-22T07:07:49;15.00;;;10.98;;
59145;SDS011;44928;53.074;6.646;2023-04-22T07:10:15;14.88;;;11.45;;
59145;SDS011;44928;53.074;6.646;2023-04-22T07:12:41;14.43;;;10.82;;
59145;SDS011;44928;53.074;6.646;2023-04-22T07:15:07;14.05;;;10.65;;
59145;SDS011;44928;53.074;6.646;2023-04-22T07:17:33;14.85;;;10.88;;
59145;SDS011;44928;53.074;6.646;2023-04-22T07:19:59;14.88;;;10.88;;
59145;SDS011;44928;53.074;6.646;2023-04-22T07:22:25;13.02;;;10.55;;
59145;SDS011;44928;53.074;6.646;2023-04-22T07:24:50;14.43;;;10.68;;
59145;SDS011;44928;53.074;6.646;2023-04-22T07:27:16;13.18;;;10.52;;
59145;SDS011;44928;53.074;6.646;2023-04-22T07:29:42;13.50;;;10.45;;
59145;SDS011;44928;53.074;6.646;2023-04-22T07:32:08;14.88;;;10.85;;
59145;SDS011;44928;53.074;6.646;2023-04-22T07:34:33;14.30;;;11.13;;
59145;SDS011;44928;53.074;6.646;2023-04-22T07:36:59;13.15;;;10.18;;
59145;SDS011;44928;53.074;6.646;2023-04-22T07:39:25;14.57;;;10.98;;
59145;SDS011;44928;53.074;6.646;2023-04-22T07:41:51;13.88;;;10.30;;
59145;SDS011;44928;53.074;6.646;2023-04-22T07:44:17;12.73;;;10.00;;
59145;SDS011;44928;53.074;6.646;2023-04-22T07:46:48;16.35;;;10.05;;
59145;SDS011;44928;53.074;6.646;2023-04-22T07:49:14;13.68;;;10.05;;
59145;SDS011;44928;53.074;6.646;2023-04-22T07:51:42;13.68;;;10.02;;
59145;SDS011;44928;53.074;6.646;2023-04-22T07:54:08;13.63;;;9.60;;
59145;SDS011;44928;53.074;6.646;2023-04-22T07:56:34;12.48;;;8.80;;
59145;SDS011;44928;53.074;6.646;2023-04-22T07:59:00;15.15;;;8.45;;
59145;SDS011;44928;53.074;6.646;2023-04-22T08:01:26;15.40;;;9.10;;
59145;SDS011;44928;53.074;6.646;2023-04-22T08:03:51;13.60;;;10.18;;
59145;SDS011;44928;53.074;6.646;2023-04-22T08:06:17;12.43;;;9.77;;
59145;SDS011;44928;53.074;6.646;2023-04-22T08:08:43;14.23;;;10.98;;
59145;SDS011;44928;53.074;6.646;2023-04-22T08:11:09;14.30;;;11.13;;
59145;SDS011;44928;53.074;6.646;2023-04-22T08:13:35;13.93;;;10.52;;
59145;SDS011;44928;53.074;6.646;2023-04-22T08:16:00;14.00;;;10.45;;
59145;SDS011;44928;53.074;6.646;2023-04-22T08:18:31;14.00;;;10.13;;
59145;SDS011;44928;53.074;6.646;2023-04-22T08:20:56;15.07;;;10.63;;
59145;SDS011;44928;53.074;6.646;2023-04-22T08:23:22;12.95;;;10.18;;
59145;SDS011;44928;53.074;6.646;2023-04-22T08:25:49;15.15;;;11.25;;
59145;SDS011;44928;53.074;6.646;2023-04-22T08:28:16;14.75;;;10.20;;
59145;SDS011;44928;53.074;6.646;2023-04-22T08:30:42;14.93;;;10.35;;
59145;SDS011;44928;53.074;6.646;2023-04-22T08:33:08;13.10;;;9.73;;
59145;SDS011;44928;53.074;6.646;2023-04-22T08:35:34;13.00;;;9.55;;
59145;SDS011;44928;53.074;6.646;2023-04-22T08:38:00;12.98;;;8.77;;
59145;SDS011;44928;53.074;6.646;2023-04-22T08:40:27;12.45;;;9.63;;
59145;SDS011;44928;53.074;6.646;2023-04-22T08:42:53;11.05;;;8.65;;
59145;SDS011;44928;53.074;6.646;2023-04-22T08:45:20;14.60;;;8.65;;
59145;SDS011;44928;53.074;6.646;2023-04-22T08:47:49;11.57;;;8.35;;
59145;SDS011;44928;53.074;6.646;2023-04-22T08:50:16;11.50;;;8.50;;
59145;SDS011;44928;53.074;6.646;2023-04-22T08:52:46;10.93;;;7.47;;
59145;SDS011;44928;53.074;6.646;2023-04-22T08:55:12;11.82;;;8.32;;
59145;SDS011;44928;53.074;6.646;2023-04-22T08:57:38;13.20;;;8.65;;
59145;SDS011;44928;53.074;6.646;2023-04-22T09:00:05;12.20;;;8.93;;
59145;SDS011;44928;53.074;6.646;2023-04-22T09:02:33;13.00;;;8.13;;
59145;SDS011;44928;53.074;6.646;2023-04-22T09:05:00;12.70;;;7.75;;
59145;SDS011;44928;53.074;6.646;2023-04-22T09:07:28;12.52;;;7.75;;
59145;SDS011;44928;53.074;6.646;2023-04-22T09:09:55;11.40;;;7.30;;
59145;SDS011;44928;53.074;6.646;2023-04-22T09:12:22;10.25;;;6.60;;
59145;SDS011;44928;53.074;6.646;2023-04-22T09:14:52;11.95;;;6.05;;
59145;SDS011;44928;53.074;6.646;2023-04-22T09:17:29;10.90;;;6.43;;
59145;SDS011;44928;53.074;6.646;2023-04-22T09:20:02;9.93;;;6.00;;
59145;SDS011;44928;53.074;6.646;2023-04-22T09:25:17;11.60;;;6.97;;
59145;SDS011;44928;53.074;6.646;2023-04-22T09:27:51;9.95;;;6.72;;
59145;SDS011;44928;53.074;6.646;2023-04-22T09:32:57;11.18;;;7.75;;
59145;SDS011;44928;53.074;6.646;2023-04-22T09:35:28;11.27;;;6.53;;
59145;SDS011;44928;53.074;6.646;2023-04-22T09:37:56;10.63;;;6.13;;
59145;SDS011;44928;53.074;6.646;2023-04-22T09:40:23;10.43;;;6.43;;
59145;SDS011;44928;53.074;6.646;2023-04-22T09:42:50;10.25;;;6.35;;
59145;SDS011;44928;53.074;6.646;2023-04-22T09:45:24;9.75;;;6.40;;
59145;SDS011;44928;53.074;6.646;2023-04-22T09:48:09;12.85;;;7.25;;
59145;SDS011;44928;53.074;6.646;2023-04-22T09:50:37;10.98;;;6.53;;
59145;SDS011;44928;53.074;6.646;2023-04-22T09:53:08;9.85;;;6.20;;
59145;SDS011;44928;53.074;6.646;2023-04-22T09:55:45;10.20;;;6.22;;
59145;SDS011;44928;53.074;6.646;2023-04-22T09:58:16;9.77;;;6.20;;
59145;SDS011;44928;53.074;6.646;2023-04-22T10:00:47;9.05;;;5.30;;
59145;SDS011;44928;53.074;6.646;2023-04-22T10:03:16;9.38;;;5.45;;
59145;SDS011;44928;53.074;6.646;2023-04-22T10:05:42;8.70;;;4.95;;
59145;SDS011;44928;53.074;6.646;2023-04-22T10:08:10;9.57;;;5.38;;
59145;SDS011;44928;53.074;6.646;2023-04-22T10:10:37;10.32;;;5.72;;
59145;SDS011;44928;53.074;6.646;2023-04-22T10:13:04;10.27;;;5.32;;
59145;SDS011;44928;53.074;6.646;2023-04-22T10:15:31;9.40;;;5.20;;
59145;SDS011;44928;53.074;6.646;2023-04-22T10:18:00;10.57;;;5.45;;
59145;SDS011;44928;53.074;6.646;2023-04-22T10:20:29;10.45;;;6.47;;
59145;SDS011;44928;53.074;6.646;2023-04-22T10:23:02;9.95;;;5.72;;
59145;SDS011;44928;53.074;6.646;2023-04-22T10:25:29;8.40;;;4.90;;
59145;SDS011;44928;53.074;6.646;2023-04-22T10:28:01;9.23;;;5.75;;
59145;SDS011;44928;53.074;6.646;2023-04-22T10:30:33;9.38;;;5.30;;
59145;SDS011;44928;53.074;6.646;2023-04-22T10:38:37;9.00;;;5.10;;
59145;SDS011;44928;53.074;6.646;2023-04-22T10:41:24;9.73;;;5.32;;
59145;SDS011;44928;53.074;6.646;2023-04-22T10:43:57;9.93;;;5.80;;
59145;SDS011;44928;53.074;6.646;2023-04-22T10:51:42;8.52;;;4.95;;
59145;SDS011;44928;53.074;6.646;2023-04-22T10:59:32;9.23;;;5.55;;
59145;SDS011;44928;53.074;6.646;2023-04-22T11:02:04;11.50;;;5.18;;
59145;SDS011;44928;53.074;6.646;2023-04-22T11:04:30;8.60;;;5.35;;
59145;SDS011;44928;53.074;6.646;2023-04-22T11:10:12;8.07;;;4.35;;
59145;SDS011;44928;53.074;6.646;2023-04-22T11:13:32;9.25;;;4.97;;
59145;SDS011;44928;53.074;6.646;2023-04-22T11:15:58;9.57;;;5.10;;
59145;SDS011;44928;53.074;6.646;2023-04-22T11:18:27;9.02;;;4.60;;
59145;SDS011;44928;53.074;6.646;2023-04-22T11:21:02;7.88;;;4.55;;
59145;SDS011;44928;53.074;6.646;2023-04-22T11:23:35;8.32;;;4.40;;
59145;SDS011;44928;53.074;6.646;2023-04-22T11:26:02;8.40;;;4.78;;
59145;SDS011;44928;53.074;6.646;2023-04-22T11:28:30;8.65;;;4.43;;
59145;SDS011;44928;53.074;6.646;2023-04-22T11:33:28;7.63;;;3.25;;
59145;SDS011;44928;53.074;6.646;2023-04-22T11:35:55;7.45;;;3.65;;
59145;SDS011;44928;53.074;6.646;2023-04-22T11:38:22;7.25;;;3.75;;
59145;SDS011;44928;53.074;6.646;2023-04-22T11:40:48;8.43;;;3.88;;
59145;SDS011;44928;53.074;6.646;2023-04-22T11:43:14;6.53;;;3.38;;
59145;SDS011;44928;53.074;6.646;2023-04-22T11:45:42;8.75;;;3.30;;
59145;SDS011;44928;53.074;6.646;2023-04-22T11:48:08;9.20;;;3.70;;
59145;SDS011;44928;53.074;6.646;2023-04-22T11:50:37;7.45;;;3.40;;
59145;SDS011;44928;53.074;6.646;2023-04-22T11:53:11;6.60;;;3.08;;
59145;SDS011;44928;53.074;6.646;2023-04-22T11:55:39;8.35;;;3.97;;
59145;SDS011;44928;53.074;6.646;2023-04-22T11:58:07;8.48;;;3.78;;
59145;SDS011;44928;53.074;6.646;2023-04-22T12:00:36;8.35;;;4.65;;
59145;SDS011;44928;53.074;6.646;2023-04-22T12:03:08;8.63;;;4.35;;
59145;SDS011;44928;53.074;6.646;2023-04-22T12:05:42;10.85;;;5.07;;
59145;SDS011;44928;53.074;6.646;2023-04-22T12:08:21;7.90;;;3.95;;
59145;SDS011;44928;53.074;6.646;2023-04-22T12:10:59;9.35;;;5.18;;
59145;SDS011;44928;53.074;6.646;2023-04-22T12:15:55;10.07;;;6.10;;
59145;SDS011;44928;53.074;6.646;2023-04-22T12:18:37;10.20;;;4.85;;
59145;SDS011;44928;53.074;6.646;2023-04-22T12:23:43;10.02;;;4.75;;
59145;SDS011;44928;53.074;6.646;2023-04-22T12:26:10;8.95;;;5.20;;
59145;SDS011;44928;53.074;6.646;2023-04-22T12:28:37;9.55;;;6.20;;
59145;SDS011;44928;53.074;6.646;2023-04-22T12:31:04;9.50;;;5.50;;
59145;SDS011;44928;53.074;6.646;2023-04-22T12:33:30;10.02;;;4.43;;
59145;SDS011;44928;53.074;6.646;2023-04-22T12:35:56;8.35;;;4.80;;
59145;SDS011;44928;53.074;6.646;2023-04-22T12:38:22;7.82;;;4.65;;
59145;SDS011;44928;53.074;6.646;2023-04-22T12:40:48;12.25;;;5.85;;
59145;SDS011;44928;53.074;6.646;2023-04-22T12:43:15;9.68;;;5.38;;
59145;SDS011;44928;53.074;6.646;2023-04-22T12:45:41;8.75;;;4.65;;
59145;SDS011;44928;53.074;6.646;2023-04-22T12:48:07;9.52;;;4.70;;
59145;SDS011;44928;53.074;6.646;2023-04-22T12:50:33;8.93;;;5.22;;
59145;SDS011;44928;53.074;6.646;2023-04-22T12:52:58;10.02;;;5.20;;
59145;SDS011;44928;53.074;6.646;2023-04-22T12:55:24;10.10;;;5.28;;
59145;SDS011;44928;53.074;6.646;2023-04-22T12:57:50;9.13;;;4.90;;
59145;SDS011;44928;53.074;6.646;2023-04-22T13:00:17;8.98;;;5.70;;
59145;SDS011;44928;53.074;6.646;2023-04-22T13:02:44;9.93;;;6.05;;
59145;SDS011;44928;53.074;6.646;2023-04-22T13:05:12;8.57;;;4.93;;
59145;SDS011;44928;53.074;6.646;2023-04-22T13:07:39;9.00;;;5.45;;
59145;SDS011;44928;53.074;6.646;2023-04-22T13:10:06;8.30;;;5.30;;
59145;SDS011;44928;53.074;6.646;2023-04-22T13:12:33;9.95;;;6.25;;
59145;SDS011;44928;53.074;6.646;2023-04-22T13:14:59;9.23;;;5.65;;
59145;SDS011;44928;53.074;6.646;2023-04-22T13:17:26;9.07;;;5.65;;
59145;SDS011;44928;53.074;6.646;2023-04-22T13:19:51;8.57;;;5.70;;
59145;SDS011;44928;53.074;6.646;2023-04-22T13:22:17;9.57;;;5.70;;
59145;SDS011;44928;53.074;6.646;2023-04-22T13:24:43;9.52;;;5.80;;
59145;SDS011;44928;53.074;6.646;2023-04-22T13:27:09;9.07;;;5.15;;
59145;SDS011;44928;53.074;6.646;2023-04-22T13:29:36;11.43;;;5.30;;
59145;SDS011;44928;53.074;6.646;2023-04-22T13:32:03;9.57;;;5.72;;
59145;SDS011;44928;53.074;6.646;2023-04-22T13:34:29;9.25;;;6.25;;
59145;SDS011;44928;53.074;6.646;2023-04-22T13:36:55;8.85;;;5.40;;
59145;SDS011;44928;53.074;6.646;2023-04-22T13:39:21;8.15;;;4.90;;
59145;SDS011;44928;53.074;6.646;2023-04-22T13:41:48;10.27;;;4.97;;
59145;SDS011;44928;53.074;6.646;2023-04-22T13:44:14;10.57;;;6.00;;
59145;SDS011;44928;53.074;6.646;2023-04-22T13:46:40;9.23;;;5.13;;
59145;SDS011;44928;53.074;6.646;2023-04-22T13:49:07;9.50;;;6.35;;
59145;SDS011;44928;53.074;6.646;2023-04-22T13:51:33;9.55;;;5.50;;
59145;SDS011;44928;53.074;6.646;2023-04-22T13:54:00;10.15;;;5.78;;
59145;SDS011;44928;53.074;6.646;2023-04-22T13:56:26;10.82;;;6.10;;
59145;SDS011;44928;53.074;6.646;2023-04-22T13:58:52;10.00;;;6.05;;
59145;SDS011;44928;53.074;6.646;2023-04-22T14:01:18;9.27;;;5.00;;
59145;SDS011;44928;53.074;6.646;2023-04-22T14:03:44;9.60;;;4.72;;
59145;SDS011;44928;53.074;6.646;2023-04-22T14:06:11;9.20;;;5.07;;
59145;SDS011;44928;53.074;6.646;2023-04-22T14:08:37;8.70;;;5.25;;
59145;SDS011;44928;53.074;6.646;2023-04-22T14:11:03;9.35;;;5.05;;
59145;SDS011;44928;53.074;6.646;2023-04-22T14:13:30;9.48;;;5.78;;
59145;SDS011;44928;53.074;6.646;2023-04-22T14:15:56;9.10;;;5.20;;
59145;SDS011;44928;53.074;6.646;2023-04-22T14:18:22;10.85;;;5.85;;
59145;SDS011;44928;53.074;6.646;2023-04-22T14:20:49;9.75;;;5.70;;
59145;SDS011;44928;53.074;6.646;2023-04-22T14:23:16;9.82;;;6.47;;
59145;SDS011;44928;53.074;6.646;2023-04-22T14:25:46;10.93;;;6.28;;
59145;SDS011;44928;53.074;6.646;2023-04-22T14:28:13;10.52;;;5.72;;
59145;SDS011;44928;53.074;6.646;2023-04-22T14:30:40;10.30;;;5.55;;
59145;SDS011;44928;53.074;6.646;2023-04-22T14:33:06;9.65;;;5.60;;
59145;SDS011;44928;53.074;6.646;2023-04-22T14:35:33;10.23;;;5.63;;
59145;SDS011;44928;53.074;6.646;2023-04-22T14:38:04;9.00;;;6.00;;
59145;SDS011;44928;53.074;6.646;2023-04-22T14:40:31;10.68;;;6.05;;
59145;SDS011;44928;53.074;6.646;2023-04-22T14:42:58;9.20;;;6.05;;
59145;SDS011;44928;53.074;6.646;2023-04-22T14:45:26;12.55;;;7.20;;
59145;SDS011;44928;53.074;6.646;2023-04-22T14:47:53;11.63;;;6.60;;
59145;SDS011;44928;53.074;6.646;2023-04-22T14:50:19;9.88;;;6.05;;
59145;SDS011;44928;53.074;6.646;2023-04-22T14:52:45;11.43;;;6.35;;
59145;SDS011;44928;53.074;6.646;2023-04-22T14:55:11;10.50;;;6.32;;
59145;SDS011;44928;53.074;6.646;2023-04-22T14:57:37;10.38;;;6.30;;
59145;SDS011;44928;53.074;6.646;2023-04-22T15:00:04;10.95;;;7.35;;
59145;SDS011;44928;53.074;6.646;2023-04-22T15:02:32;11.13;;;7.38;;
59145;SDS011;44928;53.074;6.646;2023-04-22T15:05:02;14.75;;;7.85;;
59145;SDS011;44928;53.074;6.646;2023-04-22T15:07:29;11.32;;;7.70;;